Frederick, OK

1:20 AM CST on November 23, 2014 (GMT -0600)
Frederick Municipal | Change Station
CLOSE
Current Station
Airport
Location: Frederick,
Elevation: 1253 ft
Nearby Weather Stations

Elev 1253 ft 34.35 °N, 98.98 °W | Updated 6 minutes ago

Overcast
Overcast
52 °F
Feels Like 52 °F
N
8
Wind Variable Wind from South

Today
High -- | Low -- °F
--% Chance of Precip.
Yesterday
High -- | Low -- °F
Precip. -- in
7:16 AM 5:27 PM
New Moon, 1% visible
Pressure 29.59 in
Visibility 2.5 miles
Clouds Overcast 300 ft
Dew Point 51 °F
Humidity 97%
Rainfall 0.00 in
Snow Depth Not available.
UV 0 out of 12
Pollen .50 out of 12
Air Quality Not available.
Flu Activity Not available.
SPECI KFDR 230714Z AUTO 19007KT 2 1/2SM BR OVC003 11/11 A2959 RMK AO2 T01110106 $

More Conditions Fewer Conditions

Pressure 29.59 in
Visibility 2.5 miles
Clouds Overcast 300 ft
Dew Point 51 °F
Humidity 97%
Rainfall 0.00 in
Snow Depth Not available.
UV 0 out of 12
Pollen .50 out of 12
Air Quality Not available.
Flu Activity Not available.
SPECI KFDR 230714Z AUTO 19007KT 2 1/2SM BR OVC003 11/11 A2959 RMK AO2 T01110106 $

More Conditions Fewer Conditions

10-Day Weather Forecast

Almanac

Astronomy

Nov. 23, 2014 Rise Set
Actual Time
Civil Twilight
Nautical Twilight
Astronomical Twilight
Moon
Length of Visible Light
Length of Day
Tomorrow will be .
, % of the Moon is Illuminated

Today's Extremes

State Highs State Lows

Community

WunderPhotos

Upload Photos

1,773,024 photos uploaded!

WunderBlogs® & News

Nearby

Air Quality

  Air Quality AQ Index Pollutant
Not available.

Snow Depth

Station Depth Elevation

Earthquake Activity

City Distance Mag. Time & Date
Minimum magnitude displayed is 2.5.

Coastal Water Temperatures

Place Temperature

Nearby Weather Stations